Time;durP1;ratioP1;P1;durP2;ratioP2;P2;SDS_P1;SDS_P2;PMS_P1;PMS_P2;Temp;Humidity;BMP_temperature;BMP_pressure;BME280_temperature;BME280_humidity;BME280_pressure;Samples;Min_cycle;Max_cycle;Signal;HPM_P1;HPM_P2
2021/04/17 00:01:04;;;;;;;13.43;5.97;;;8.20;49.00;;;;;;4930665;29;20425;-75
2021/04/17 00:03:30;;;;;;;15.20;7.00;;;8.10;49.10;;;;;;4950316;29;20428;-74
2021/04/17 00:05:55;;;;;;;8.50;6.17;;;8.10;49.20;;;;;;4928267;29;20184;-74
2021/04/17 00:08:22;;;;;;;8.67;5.70;;;8.10;49.40;;;;;;4959379;29;20219;-75
2021/04/17 00:10:47;;;;;;;8.60;5.07;;;8.10;49.40;;;;;;4942288;29;20456;-75
2021/04/17 00:13:13;;;;;;;14.33;5.30;;;8.10;49.50;;;;;;4957209;29;20893;-74
2021/04/17 00:15:39;;;;;;;7.83;4.97;;;8.10;49.60;;;;;;4938491;29;20261;-74
2021/04/17 00:18:05;;;;;;;8.20;5.47;;;8.00;49.70;;;;;;4961479;29;20989;-75
2021/04/17 00:20:33;;;;;;;7.97;5.83;;;8.00;49.90;;;;;;4960831;29;20302;-74
2021/04/17 00:22:59;;;;;;;7.50;5.87;;;7.90;50.20;;;;;;4954187;29;20177;-75
2021/04/17 00:25:25;;;;;;;12.73;5.53;;;7.90;50.50;;;;;;4955322;28;20429;-75
2021/04/17 00:27:51;;;;;;;5.40;4.70;;;7.80;50.40;;;;;;4957549;29;20177;-74
2021/04/17 00:30:17;;;;;;;8.30;5.30;;;7.80;50.40;;;;;;4972144;28;20208;-75
2021/04/17 00:32:43;;;;;;;5.93;4.67;;;7.80;50.50;;;;;;4957666;29;20162;-74
2021/04/17 00:35:09;;;;;;;8.73;5.40;;;7.70;50.30;;;;;;4956456;29;20763;-74
2021/04/17 00:37:35;;;;;;;8.97;5.03;;;7.70;50.10;;;;;;4957451;29;20166;-74
2021/04/17 00:40:00;;;;;;;7.90;4.30;;;7.70;50.00;;;;;;4957275;29;20447;-74
2021/04/17 00:42:26;;;;;;;5.90;4.80;;;7.70;49.90;;;;;;4957448;29;20569;-74
2021/04/17 00:44:52;;;;;;;7.90;4.70;;;7.70;49.90;;;;;;4957121;29;20181;-74
2021/04/17 00:47:17;;;;;;;8.27;5.40;;;7.70;49.90;;;;;;4955995;29;20286;-74
2021/04/17 00:49:43;;;;;;;9.63;5.43;;;7.60;49.90;;;;;;4956356;29;20215;-74
2021/04/17 00:52:09;;;;;;;7.17;5.77;;;7.60;50.00;;;;;;4939807;29;20173;-75
2021/04/17 00:54:35;;;;;;;10.63;5.53;;;7.50;50.00;;;;;;4939785;29;20921;-74
2021/04/17 00:57:01;;;;;;;7.10;4.13;;;7.50;50.10;;;;;;4956430;29;20416;-75
2021/04/17 00:59:27;;;;;;;10.57;5.63;;;7.40;50.10;;;;;;4971544;28;20173;-75
2021/04/17 01:01:53;;;;;;;14.30;5.43;;;7.40;50.30;;;;;;4956960;29;20408;-75
2021/04/17 01:04:33;;;;;;;9.80;5.10;;;7.30;50.30;;;;;;4956929;29;20174;-74
2021/04/17 01:07:12;;;;;;;8.13;4.97;;;7.30;50.50;;;;;;4971449;28;20180;-74
2021/04/17 01:09:49;;;;;;;7.53;5.40;;;7.30;50.50;;;;;;4956582;29;20471;-75
2021/04/17 01:12:22;;;;;;;8.93;5.60;;;7.20;50.60;;;;;;4957057;29;20933;-75
2021/04/17 01:14:50;;;;;;;7.63;4.97;;;7.20;50.70;;;;;;4939388;29;20436;-75
2021/04/17 01:17:17;;;;;;;8.33;4.93;;;7.10;50.60;;;;;;4956998;29;20421;-74
2021/04/17 01:19:58;;;;;;;10.13;5.70;;;7.10;50.70;;;;;;4939374;29;20584;-75
2021/04/17 01:22:25;;;;;;;12.80;6.27;;;7.10;50.70;;;;;;4956586;29;20421;-75
2021/04/17 01:25:18;;;;;;;9.83;5.13;;;7.10;50.80;;;;;;4956347;29;20933;-74
2021/04/17 01:27:44;;;;;;;8.40;5.90;;;7.10;50.80;;;;;;4952483;29;20799;-75
2021/04/17 01:30:13;;;;;;;8.43;5.03;;;7.00;50.90;;;;;;4956546;29;20461;-74
2021/04/17 01:32:40;;;;;;;10.57;5.40;;;7.00;51.00;;;;;;4956533;29;20405;-75
2021/04/17 01:35:10;;;;;;;8.13;5.17;;;7.00;51.10;;;;;;4956031;29;20512;-75
2021/04/17 01:38:22;;;;;;;11.33;5.33;;;6.90;51.10;;;;;;4955336;28;20967;-75
2021/04/17 01:40:52;;;;;;;12.83;5.40;;;6.90;51.30;;;;;;4927545;29;21100;-76
2021/04/17 01:43:22;;;;;;;12.43;5.30;;;6.90;52.10;;;;;;4937582;29;20416;-74
2021/04/17 01:45:50;;;;;;;16.27;6.30;;;6.80;51.60;;;;;;4953988;29;20428;-73
2021/04/17 01:48:17;;;;;;;6.80;4.37;;;6.80;51.70;;;;;;4938514;29;20436;-74
2021/04/17 01:50:45;;;;;;;8.40;5.53;;;6.80;51.40;;;;;;4955661;29;20433;-74
2021/04/17 01:53:16;;;;;;;8.83;5.53;;;6.80;51.00;;;;;;4955796;29;20448;-73
2021/04/17 01:55:42;;;;;;;9.90;5.13;;;6.80;50.90;;;;;;4955834;29;20971;-73
2021/04/17 01:58:09;;;;;;;7.07;4.37;;;6.80;50.50;;;;;;4955091;29;20491;-74
2021/04/17 02:00:35;;;;;;;9.13;5.53;;;6.80;50.30;;;;;;4955377;29;20448;-74
2021/04/17 02:03:02;;;;;;;8.07;4.50;;;6.70;50.10;;;;;;4955677;29;20420;-74
2021/04/17 02:05:27;;;;;;;11.33;5.17;;;6.70;50.00;;;;;;4954614;29;20412;-75
2021/04/17 02:07:58;;;;;;;9.23;5.27;;;6.70;50.00;;;;;;4937964;29;20427;-75
2021/04/17 02:10:24;;;;;;;6.40;4.90;;;6.70;50.00;;;;;;4955462;29;20894;-75
2021/04/17 02:12:50;;;;;;;7.50;4.77;;;6.70;50.00;;;;;;4955518;29;20803;-74
2021/04/17 02:15:16;;;;;;;10.57;5.93;;;6.60;49.90;;;;;;4955174;29;20404;-75
2021/04/17 02:17:57;;;;;;;9.80;7.27;;;6.60;49.90;;;;;;4938157;29;20467;-74
2021/04/17 02:20:32;;;;;;;6.90;4.87;;;6.60;50.10;;;;;;4955089;29;20483;-75
2021/04/17 02:22:57;;;;;;;9.17;5.80;;;6.60;50.00;;;;;;4922587;29;20823;-75
2021/04/17 02:25:24;;;;;;;8.93;5.30;;;6.60;50.10;;;;;;4955167;29;20412;-74
2021/04/17 02:27:50;;;;;;;7.87;4.47;;;6.50;50.10;;;;;;4938107;29;20184;-73
2021/04/17 02:30:17;;;;;;;8.27;5.10;;;6.50;50.10;;;;;;4955182;29;20475;-74
2021/04/17 02:32:42;;;;;;;5.90;4.10;;;6.50;50.20;;;;;;4938295;29;20416;-74
2021/04/17 02:35:08;;;;;;;8.23;4.80;;;6.40;50.30;;;;;;4938191;29;20424;-74
2021/04/17 02:37:34;;;;;;;7.57;4.47;;;6.40;50.40;;;;;;4955814;29;20170;-74
2021/04/17 02:40:00;;;;;;;10.60;4.50;;;6.30;50.30;;;;;;4961524;29;20435;-75
2021/04/17 02:42:25;;;;;;;6.77;3.80;;;6.30;50.50;;;;;;4968500;29;20176;-75
2021/04/17 02:44:51;;;;;;;7.93;4.60;;;6.30;50.50;;;;;;4940609;29;20185;-75
2021/04/17 02:47:17;;;;;;;6.87;4.10;;;6.30;50.60;;;;;;4965499;29;20244;-75
2021/04/17 02:49:44;;;;;;;8.37;4.60;;;6.20;51.10;;;;;;4979904;28;20204;-75
2021/04/17 02:52:10;;;;;;;8.20;4.27;;;6.20;50.80;;;;;;4938942;29;20795;-75
2021/04/17 02:54:35;;;;;;;13.57;5.57;;;6.20;50.80;;;;;;4955303;29;20404;-75
2021/04/17 02:57:01;;;;;;;7.33;4.53;;;6.10;50.90;;;;;;4955702;29;20193;-75
2021/04/17 02:59:27;;;;;;;6.67;3.87;;;6.10;51.00;;;;;;4938019;29;20181;-75
2021/04/17 03:01:59;;;;;;;8.13;5.40;;;6.10;50.90;;;;;;4961045;29;20185;-74
2021/04/17 03:04:24;;;;;;;10.57;4.80;;;6.10;51.00;;;;;;4960817;29;20419;-75
2021/04/17 03:06:50;;;;;;;8.73;4.27;;;6.00;51.10;;;;;;4955888;29;20515;-75
2021/04/17 03:09:16;;;;;;;4.73;3.97;;;6.00;51.20;;;;;;4937009;28;20190;-75
2021/04/17 03:11:41;;;;;;;8.57;4.87;;;6.00;51.20;;;;;;4954941;29;20637;-74
2021/04/17 03:14:07;;;;;;;8.17;4.63;;;5.90;51.40;;;;;;4954607;29;20162;-74
2021/04/17 03:16:33;;;;;;;12.10;4.27;;;5.90;51.40;;;;;;4937119;29;20177;-74
2021/04/17 03:18:58;;;;;;;5.50;4.00;;;5.90;51.50;;;;;;4937301;29;20284;-74
2021/04/17 03:21:24;;;;;;;7.27;4.17;;;5.90;51.60;;;;;;4954506;29;20185;-74
2021/04/17 03:23:50;;;;;;;7.17;4.30;;;5.90;51.70;;;;;;4954626;29;20252;-74
2021/04/17 03:26:16;;;;;;;8.37;5.00;;;5.80;51.80;;;;;;4954269;29;20594;-74
2021/04/17 03:28:41;;;;;;;7.53;3.97;;;5.80;51.90;;;;;;4936826;29;20192;-74
2021/04/17 03:31:07;;;;;;;8.43;3.70;;;5.80;52.10;;;;;;4968928;28;20483;-74
2021/04/17 03:33:33;;;;;;;5.90;4.10;;;5.80;52.10;;;;;;4954551;29;20177;-74
2021/04/17 03:35:59;;;;;;;6.23;4.10;;;5.70;51.70;;;;;;4954597;29;20603;-74
2021/04/17 03:38:24;;;;;;;5.93;4.20;;;5.70;51.80;;;;;;4954266;29;20204;-74
2021/04/17 03:40:50;;;;;;;5.17;3.50;;;5.70;52.00;;;;;;4954193;29;20188;-75
2021/04/17 03:43:16;;;;;;;6.90;4.23;;;5.70;52.20;;;;;;4937238;29;20177;-74
2021/04/17 03:45:42;;;;;;;7.07;4.00;;;5.70;52.20;;;;;;4921199;29;20425;-74
2021/04/17 03:48:08;;;;;;;13.70;3.80;;;5.70;52.20;;;;;;4954451;29;20409;-74
2021/04/17 03:50:34;;;;;;;4.50;3.57;;;5.60;52.20;;;;;;4954230;29;20287;-74
2021/04/17 03:52:59;;;;;;;8.03;4.80;;;5.60;52.00;;;;;;4936984;29;20169;-74
2021/04/17 03:55:25;;;;;;;9.33;3.57;;;5.60;52.10;;;;;;4953984;29;20401;-74
2021/04/17 03:57:51;;;;;;;5.70;3.90;;;5.60;52.20;;;;;;4954290;29;20180;-75
2021/04/17 04:00:19;;;;;;;6.77;4.40;;;5.60;52.30;;;;;;4953585;28;20205;-75
2021/04/17 04:02:45;;;;;;;4.80;3.80;;;5.50;52.30;;;;;;4953990;29;20260;-73
2021/04/17 04:05:12;;;;;;;6.80;3.40;;;5.50;52.40;;;;;;4936721;29;20424;-74
2021/04/17 04:07:39;;;;;;;5.20;3.43;;;5.50;52.50;;;;;;4937288;29;20421;-74
2021/04/17 04:10:07;;;;;;;7.60;4.47;;;5.40;52.70;;;;;;4937699;29;20467;-74
2021/04/17 04:12:33;;;;;;;6.47;3.80;;;5.40;52.80;;;;;;4954825;29;20778;-73
2021/04/17 04:15:00;;;;;;;9.03;3.93;;;5.30;52.90;;;;;;4971173;28;20932;-74
2021/04/17 04:17:25;;;;;;;8.10;4.47;;;5.30;53.30;;;;;;4960165;29;20427;-75
2021/04/17 04:19:51;;;;;;;5.70;3.60;;;5.20;53.60;;;;;;4974530;29;20512;-73
2021/04/17 04:22:17;;;;;;;12.60;5.30;;;5.10;54.10;;;;;;4977470;29;20263;-72
2021/04/17 04:24:42;;;;;;;12.90;5.40;;;5.00;54.80;;;;;;4977301;28;20252;-75
2021/04/17 04:27:09;;;;;;;7.87;4.83;;;4.90;55.30;;;;;;4977239;28;20165;-73
2021/04/17 04:29:34;;;;;;;9.73;4.90;;;4.80;56.00;;;;;;4952189;29;20295;-75
2021/04/17 04:32:00;;;;;;;12.53;4.53;;;4.80;56.50;;;;;;4956283;29;20464;-75
2021/04/17 04:34:26;;;;;;;8.43;4.93;;;4.70;56.80;;;;;;4955987;29;20192;-75
2021/04/17 04:36:51;;;;;;;13.70;5.80;;;4.70;57.10;;;;;;4939217;29;20170;-75
2021/04/17 04:39:17;;;;;;;11.97;5.70;;;4.60;57.40;;;;;;4956168;29;20169;-75
2021/04/17 04:41:43;;;;;;;9.80;5.10;;;4.60;57.60;;;;;;4955684;29;20288;-75
2021/04/17 04:44:08;;;;;;;10.67;5.40;;;4.50;57.90;;;;;;4937566;29;20176;-76
2021/04/17 04:46:34;;;;;;;14.00;4.43;;;4.50;58.60;;;;;;4937711;29;20213;-75
2021/04/17 04:49:00;;;;;;;6.63;4.23;;;4.50;58.10;;;;;;4953421;29;20632;-74
2021/04/17 04:51:26;;;;;;;8.57;5.50;;;4.40;58.30;;;;;;4953707;29;20429;-75
2021/04/17 04:53:53;;;;;;;12.07;6.37;;;4.40;58.40;;;;;;4953347;29;20177;-75
2021/04/17 04:56:19;;;;;;;10.17;4.57;;;4.40;58.40;;;;;;4953053;29;20906;-74
2021/04/17 04:58:44;;;;;;;11.43;5.40;;;4.40;58.60;;;;;;4953324;29;20462;-74
2021/04/17 05:01:11;;;;;;;13.87;5.93;;;4.40;58.70;;;;;;4968961;28;20452;-74
2021/04/17 05:03:36;;;;;;;11.83;6.23;;;4.40;58.80;;;;;;4952946;29;20180;-73
2021/04/17 05:06:02;;;;;;;7.80;4.90;;;4.40;58.80;;;;;;4952929;29;20417;-75
2021/04/17 05:08:28;;;;;;;9.20;4.63;;;4.40;58.90;;;;;;4953563;29;20213;-74
2021/04/17 05:10:53;;;;;;;11.90;5.10;;;4.40;59.00;;;;;;4935942;28;20212;-75
2021/04/17 05:13:19;;;;;;;8.93;5.47;;;4.40;59.00;;;;;;4938784;29;20169;-74
2021/04/17 05:15:45;;;;;;;10.83;5.57;;;4.50;59.00;;;;;;4923249;29;20270;-74
2021/04/17 05:18:10;;;;;;;7.43;4.23;;;4.50;58.80;;;;;;4939169;29;20535;-75
2021/04/17 05:20:36;;;;;;;7.87;5.10;;;4.50;58.60;;;;;;4956752;29;20193;-76
2021/04/17 05:23:02;;;;;;;9.20;4.70;;;4.60;58.50;;;;;;4972095;28;20179;-74
2021/04/17 05:25:27;;;;;;;7.60;4.70;;;4.60;58.30;;;;;;4944062;29;20173;-75
2021/04/17 05:27:53;;;;;;;10.20;5.50;;;4.70;58.10;;;;;;4968266;29;20280;-75
2021/04/17 05:30:20;;;;;;;10.07;5.70;;;4.80;57.90;;;;;;4960506;29;20201;-75
2021/04/17 05:32:45;;;;;;;7.80;4.63;;;4.80;57.60;;;;;;4985049;28;20185;-74
2021/04/17 05:35:12;;;;;;;7.50;4.50;;;4.90;57.30;;;;;;4964619;29;20416;-75
2021/04/17 05:37:37;;;;;;;10.77;5.10;;;5.00;57.20;;;;;;4957438;29;20197;-75
2021/04/17 05:40:04;;;;;;;9.37;5.17;;;5.00;57.30;;;;;;4957646;29;20805;-75
2021/04/17 05:42:30;;;;;;;8.87;4.80;;;5.10;57.30;;;;;;4956133;29;20172;-75
2021/04/17 05:44:56;;;;;;;9.40;5.53;;;5.10;57.20;;;;;;4956055;29;20437;-75
2021/04/17 05:47:21;;;;;;;10.97;6.60;;;5.20;57.00;;;;;;4938788;29;20177;-75
2021/04/17 05:49:47;;;;;;;9.43;6.37;;;5.20;56.70;;;;;;4955746;29;20209;-75
2021/04/17 05:52:13;;;;;;;11.73;6.10;;;5.30;56.60;;;;;;4956385;29;20252;-74
2021/04/17 05:54:39;;;;;;;10.40;6.17;;;5.30;56.60;;;;;;4955961;29;20312;-75
2021/04/17 05:57:05;;;;;;;8.70;5.87;;;5.30;56.60;;;;;;4956334;29;20586;-74
2021/04/17 05:59:31;;;;;;;13.30;5.60;;;5.40;56.50;;;;;;4957792;29;20241;-75
2021/04/17 06:01:56;;;;;;;10.07;6.90;;;5.40;56.60;;;;;;4939149;29;20464;-75
2021/04/17 06:04:22;;;;;;;15.70;6.37;;;5.40;56.50;;;;;;4955544;29;20586;-75
2021/04/17 06:06:47;;;;;;;10.17;5.70;;;5.40;56.50;;;;;;4955656;29;20169;-75
2021/04/17 06:09:13;;;;;;;10.73;5.53;;;5.40;56.60;;;;;;4939166;29;20658;-75
2021/04/17 06:11:40;;;;;;;10.43;4.67;;;5.40;56.70;;;;;;4956420;29;20287;-74
2021/04/17 06:14:06;;;;;;;17.43;8.97;;;5.50;56.80;;;;;;4956656;29;20176;-74
2021/04/17 06:16:32;;;;;;;15.37;5.90;;;5.50;56.50;;;;;;4956219;29;20478;-75
2021/04/17 06:18:58;;;;;;;13.17;5.53;;;5.60;56.50;;;;;;4957414;29;20486;-74
2021/04/17 06:21:24;;;;;;;9.00;5.30;;;5.70;56.20;;;;;;4956731;29;20503;-76
2021/04/17 06:23:49;;;;;;;12.07;4.93;;;5.90;55.70;;;;;;4960808;28;20192;-75
2021/04/17 06:26:15;;;;;;;8.80;4.50;;;6.10;55.10;;;;;;4969573;28;20186;-75
2021/04/17 06:28:40;;;;;;;10.73;4.97;;;6.30;54.40;;;;;;4958287;29;20185;-74
2021/04/17 06:31:06;;;;;;;7.73;5.30;;;6.50;53.80;;;;;;4971741;29;20193;-73
2021/04/17 06:33:32;;;;;;;9.53;5.13;;;6.70;53.20;;;;;;4958801;29;20208;-75
2021/04/17 06:35:58;;;;;;;9.00;5.77;;;6.90;52.60;;;;;;4922757;29;20205;-74
2021/04/17 06:38:24;;;;;;;8.93;4.70;;;7.00;52.20;;;;;;4954014;28;20606;-74
2021/04/17 06:40:51;;;;;;;11.43;4.00;;;7.00;51.80;;;;;;4932956;29;20445;-75
2021/04/17 06:43:23;;;;;;;9.37;5.27;;;7.10;51.70;;;;;;4961833;28;20169;-75
2021/04/17 06:45:52;;;;;;;11.93;6.37;;;7.10;51.80;;;;;;4945204;29;20410;-75
2021/04/17 06:48:19;;;;;;;7.57;4.70;;;7.10;51.80;;;;;;4945627;29;20429;-74
2021/04/17 06:50:45;;;;;;;14.17;5.53;;;7.10;51.60;;;;;;4945148;29;20452;-75
2021/04/17 06:53:15;;;;;;;10.00;5.30;;;7.10;51.30;;;;;;4928838;29;20829;-75
2021/04/17 06:55:41;;;;;;;10.00;4.80;;;7.10;51.70;;;;;;4928967;29;20429;-75
2021/04/17 06:58:07;;;;;;;9.70;5.70;;;7.10;51.60;;;;;;4945336;29;20417;-74
2021/04/17 07:00:33;;;;;;;7.40;4.63;;;7.10;51.70;;;;;;4928438;29;20689;-75
2021/04/17 07:02:58;;;;;;;11.20;6.83;;;7.20;51.70;;;;;;4953170;29;20416;-75
2021/04/17 07:05:24;;;;;;;9.50;5.07;;;7.30;51.20;;;;;;4941474;29;20237;-75
2021/04/17 07:07:50;;;;;;;10.93;4.97;;;7.40;51.10;;;;;;4936665;29;20536;-74
2021/04/17 07:10:16;;;;;;;14.27;5.37;;;7.60;51.00;;;;;;4954627;29;20686;-74
2021/04/17 07:12:45;;;;;;;10.57;5.80;;;8.80;50.80;;;;;;4938013;29;20176;-75
2021/04/17 07:15:13;;;;;;;10.70;5.73;;;10.70;46.50;;;;;;4938067;29;20428;-74
2021/04/17 07:17:40;;;;;;;10.60;5.57;;;12.20;42.90;;;;;;4938784;29;20509;-74
2021/04/17 07:20:09;;;;;;;6.57;4.10;;;13.60;40.40;;;;;;4933682;29;20446;-73
2021/04/17 07:22:39;;;;;;;7.73;4.50;;;15.00;39.20;;;;;;4934928;29;20412;-75
2021/04/17 07:25:05;;;;;;;7.40;4.40;;;15.90;35.70;;;;;;4954155;29;20421;-74
2021/04/17 07:27:35;;;;;;;9.70;5.10;;;16.10;34.30;;;;;;4950020;28;20429;-75
2021/04/17 07:30:07;;;;;;;8.97;5.17;;;16.40;33.70;;;;;;4950751;29;20209;-74
2021/04/17 07:32:33;;;;;;;9.50;5.70;;;17.20;33.10;;;;;;4952313;28;20520;-74
2021/04/17 07:35:25;;;;;;;13.23;5.13;;;17.60;31.90;;;;;;4953173;28;20440;-73
2021/04/17 07:38:07;;;;;;;9.30;5.20;;;17.90;30.70;;;;;;4936178;29;20428;-74
2021/04/17 07:40:33;;;;;;;10.70;6.43;;;17.80;30.80;;;;;;4945845;29;20442;-74
2021/04/17 07:42:59;;;;;;;12.73;6.53;;;18.00;30.30;;;;;;4952522;29;20694;-74
2021/04/17 07:45:36;;;;;;;12.53;6.40;;;17.80;30.20;;;;;;4949679;28;20429;-75
2021/04/17 07:48:26;;;;;;;15.93;7.33;;;18.00;30.60;;;;;;4953150;29;20479;-74
2021/04/17 07:51:13;;;;;;;11.63;5.53;;;18.50;30.00;;;;;;4953624;29;20470;-73
2021/04/17 07:53:42;;;;;;;13.33;6.30;;;19.50;29.70;;;;;;4938802;29;20432;-74
2021/04/17 07:56:26;;;;;;;13.87;6.07;;;20.30;28.10;;;;;;4953928;29;20960;-74
2021/04/17 07:58:59;;;;;;;6.83;4.90;;;20.70;27.50;;;;;;4942139;29;20926;-74
2021/04/17 08:01:30;;;;;;;7.87;4.93;;;20.60;27.40;;;;;;4948230;29;20419;-74
2021/04/17 08:03:58;;;;;;;11.13;4.50;;;20.30;27.60;;;;;;4942632;29;20418;-74
2021/04/17 08:06:27;;;;;;;8.17;4.93;;;20.80;27.20;;;;;;4955212;29;20436;-73
2021/04/17 08:08:54;;;;;;;6.97;4.67;;;21.20;26.40;;;;;;4949383;29;20460;-74
2021/04/17 08:11:22;;;;;;;6.00;4.07;;;21.80;26.10;;;;;;4938583;29;20464;-75
2021/04/17 08:13:49;;;;;;;6.20;4.23;;;22.00;25.00;;;;;;4938685;29;20789;-75
2021/04/17 08:16:16;;;;;;;6.43;3.70;;;22.00;24.70;;;;;;4971232;28;20421;-74
2021/04/17 08:18:43;;;;;;;9.40;3.97;;;22.40;24.60;;;;;;4960305;29;20754;-74
2021/04/17 08:21:11;;;;;;;11.20;3.33;;;21.70;24.30;;;;;;4934830;29;20470;-75
2021/04/17 08:23:38;;;;;;;5.33;3.27;;;21.30;24.80;;;;;;4954140;29;20567;-74
2021/04/17 08:26:08;;;;;;;7.00;2.90;;;21.20;24.90;;;;;;4951749;29;20414;-74
2021/04/17 08:28:42;;;;;;;6.50;3.47;;;21.30;24.20;;;;;;4967281;28;20450;-74
2021/04/17 08:31:34;;;;;;;4.30;3.13;;;20.80;24.70;;;;;;4928743;29;20809;-74
2021/04/17 08:34:21;;;;;;;5.53;3.33;;;20.30;25.40;;;;;;4940132;29;20417;-75
2021/04/17 08:37:04;;;;;;;6.50;3.50;;;20.30;25.60;;;;;;4939836;29;20441;-75
2021/04/17 08:39:36;;;;;;;3.70;2.93;;;20.80;24.90;;;;;;4939652;29;20806;-74
2021/04/17 08:42:01;;;;;;;4.30;3.20;;;21.00;25.00;;;;;;4957187;29;20451;-73
2021/04/17 08:44:34;;;;;;;11.30;3.63;;;21.60;24.80;;;;;;4953426;29;20421;-73
2021/04/17 08:47:05;;;;;;;4.30;3.23;;;21.50;25.10;;;;;;4948746;28;20188;-74
2021/04/17 08:49:39;;;;;;;6.90;4.30;;;21.40;25.20;;;;;;4929573;29;20602;-74
2021/04/17 08:52:20;;;;;;;5.20;3.60;;;21.60;24.80;;;;;;4931160;29;20500;-73
2021/04/17 08:54:53;;;;;;;5.03;3.80;;;21.20;24.70;;;;;;4920856;29;20444;-75
2021/04/17 08:57:19;;;;;;;6.73;3.97;;;20.50;25.50;;;;;;4945607;29;20802;-73
2021/04/17 08:59:56;;;;;;;12.30;4.30;;;20.40;25.90;;;;;;4937813;29;20451;-73
2021/04/17 09:02:23;;;;;;;7.00;4.60;;;20.60;25.90;;;;;;4956654;29;20269;-74
2021/04/17 09:05:10;;;;;;;7.30;4.20;;;20.80;25.50;;;;;;4956725;29;20993;-74
2021/04/17 09:07:41;;;;;;;9.00;4.30;;;19.80;26.10;;;;;;4937330;29;20512;-74
2021/04/17 09:10:25;;;;;;;5.00;4.10;;;19.10;26.80;;;;;;4946307;29;20456;-73
2021/04/17 09:13:29;;;;;;;9.50;4.93;;;18.70;27.70;;;;;;4952477;29;20413;-75
2021/04/17 09:15:56;;;;;;;8.80;4.37;;;19.50;26.90;;;;;;4965835;29;20420;-75
2021/04/17 09:18:35;;;;;;;5.70;3.60;;;20.10;26.40;;;;;;4931344;29;20408;-74
2021/04/17 09:21:15;;;;;;;5.83;3.80;;;20.50;25.60;;;;;;4933561;29;20436;-75
2021/04/17 09:23:53;;;;;;;7.47;3.67;;;20.90;25.50;;;;;;4925973;29;20427;-75
2021/04/17 09:26:31;;;;;;;7.17;3.33;;;21.20;25.00;;;;;;4926153;29;20750;-74
2021/04/17 09:28:59;;;;;;;5.80;3.40;;;21.20;24.90;;;;;;4972061;28;20462;-75
2021/04/17 09:31:25;;;;;;;5.60;3.50;;;21.60;25.10;;;;;;4964436;29;20444;-75
2021/04/17 09:34:01;;;;;;;5.47;3.10;;;22.20;24.80;;;;;;4961285;29;20405;-75
2021/04/17 09:36:27;;;;;;;8.30;3.70;;;22.50;24.30;;;;;;4954042;28;20418;-74
2021/04/17 09:38:52;;;;;;;5.50;3.53;;;22.40;24.20;;;;;;4974153;28;20460;-74
2021/04/17 09:41:18;;;;;;;5.90;3.80;;;22.20;24.10;;;;;;4967187;28;20197;-73
2021/04/17 09:43:56;;;;;;;7.67;4.30;;;20.60;25.00;;;;;;4962075;29;20199;-74
2021/04/17 09:46:23;;;;;;;4.37;3.50;;;19.80;25.90;;;;;;4957242;29;20193;-74
2021/04/17 09:48:49;;;;;;;4.70;3.27;;;18.90;27.30;;;;;;4957851;29;20479;-74
2021/04/17 09:51:25;;;;;;;4.70;3.37;;;19.00;27.10;;;;;;4959715;29;20481;-72
2021/04/17 09:53:53;;;;;;;6.60;3.60;;;18.40;27.50;;;;;;4958307;29;20423;-75
2021/04/17 09:56:34;;;;;;;6.30;3.60;;;17.80;27.90;;;;;;4957188;29;20419;-74
2021/04/17 09:59:08;;;;;;;5.93;3.80;;;17.70;28.20;;;;;;4959576;28;20910;-75
2021/04/17 10:01:35;;;;;;;5.30;3.40;;;17.40;28.20;;;;;;4958091;29;20498;-76
2021/04/17 10:04:01;;;;;;;6.77;4.30;;;17.10;28.70;;;;;;4957872;29;20505;-75
2021/04/17 10:06:37;;;;;;;6.43;3.60;;;17.00;28.70;;;;;;4940443;29;20508;-75
2021/04/17 10:09:14;;;;;;;3.70;3.13;;;16.50;29.00;;;;;;4940909;29;20869;-76
2021/04/17 10:11:42;;;;;;;6.50;3.40;;;16.30;29.10;;;;;;4952257;29;20981;-76
2021/04/17 10:14:10;;;;;;;6.87;3.27;;;16.00;29.20;;;;;;4954558;29;20417;-74
2021/04/17 10:16:42;;;;;;;7.33;4.07;;;15.80;29.40;;;;;;4956767;29;20463;-75
2021/04/17 10:19:14;;;;;;;8.40;3.87;;;15.90;29.90;;;;;;4957664;29;20412;-75
2021/04/17 10:21:42;;;;;;;7.23;3.40;;;16.10;29.20;;;;;;4955556;29;20942;-75
2021/04/17 10:24:30;;;;;;;5.30;3.17;;;16.40;28.10;;;;;;4970285;28;20448;-73
2021/04/17 10:27:07;;;;;;;8.87;3.63;;;16.90;28.20;;;;;;4955707;29;20499;-75
2021/04/17 10:29:35;;;;;;;3.77;3.23;;;17.60;27.80;;;;;;4954874;29;20531;-74
2021/04/17 10:32:14;;;;;;;9.50;3.27;;;18.30;27.00;;;;;;4954616;29;20870;-75
2021/04/17 10:34:45;;;;;;;4.60;3.07;;;18.40;26.70;;;;;;4955006;29;20833;-75
2021/04/17 10:37:15;;;;;;;6.33;2.70;;;18.00;26.30;;;;;;4955230;29;20763;-77
2021/04/17 10:40:03;;;;;;;5.30;3.33;;;17.40;27.00;;;;;;4954950;29;20419;-73
2021/04/17 10:42:47;;;;;;;4.77;2.97;;;17.00;27.20;;;;;;4954499;29;20515;-75
2021/04/17 10:45:19;;;;;;;10.60;3.73;;;17.00;27.60;;;;;;4954661;29;20483;-73
2021/04/17 10:48:04;;;;;;;5.90;4.13;;;17.10;27.90;;;;;;4955402;29;20460;-75
2021/04/17 10:50:33;;;;;;;6.70;3.47;;;17.50;27.10;;;;;;4955250;29;20508;-74
2021/04/17 10:53:13;;;;;;;7.10;3.20;;;17.30;27.40;;;;;;4954380;29;20432;-74
2021/04/17 10:55:48;;;;;;;4.23;2.73;;;17.00;27.80;;;;;;4954914;29;20420;-74
2021/04/17 10:58:28;;;;;;;9.67;3.10;;;16.80;28.20;;;;;;4946736;29;20436;-73
2021/04/17 11:01:09;;;;;;;5.57;3.27;;;16.70;27.70;;;;;;4960081;29;20476;-74
2021/04/17 11:03:49;;;;;;;5.10;2.93;;;16.10;28.10;;;;;;4957921;29;20747;-74
2021/04/17 11:06:20;;;;;;;8.03;3.27;;;15.90;28.40;;;;;;4960115;29;20484;-76
2021/04/17 11:08:48;;;;;;;6.30;3.13;;;15.80;28.60;;;;;;4964037;28;20431;-75
2021/04/17 11:11:16;;;;;;;4.10;2.40;;;15.60;29.50;;;;;;4959994;29;20473;-72
2021/04/17 11:13:43;;;;;;;6.00;2.93;;;15.60;29.40;;;;;;4953945;29;20460;-75
2021/04/17 11:16:11;;;;;;;5.63;2.93;;;16.00;28.70;;;;;;4938487;29;20435;-73
2021/04/17 11:18:42;;;;;;;5.90;2.70;;;16.10;29.20;;;;;;4967719;28;20417;-75
2021/04/17 11:21:15;;;;;;;5.93;3.57;;;16.20;28.70;;;;;;4957162;28;20490;-74
2021/04/17 11:23:48;;;;;;;6.40;3.23;;;16.50;29.00;;;;;;4958391;28;20435;-76
2021/04/17 11:26:17;;;;;;;5.53;3.10;;;16.80;28.40;;;;;;4934872;29;20419;-76
2021/04/17 11:28:45;;;;;;;4.17;2.60;;;16.60;28.20;;;;;;4936081;29;20425;-75
2021/04/17 11:31:14;;;;;;;6.17;2.90;;;16.40;28.80;;;;;;4951908;29;20441;-75
2021/04/17 11:33:40;;;;;;;6.00;3.43;;;16.30;28.80;;;;;;4957054;29;20932;-76
2021/04/17 11:36:06;;;;;;;7.13;2.90;;;16.30;28.50;;;;;;4937679;29;20428;-73
2021/04/17 11:38:34;;;;;;;4.03;2.77;;;16.30;28.70;;;;;;4938907;29;20212;-77
2021/04/17 11:41:03;;;;;;;6.30;3.20;;;16.50;29.00;;;;;;4954206;29;20472;-75
2021/04/17 11:43:29;;;;;;;5.67;3.30;;;16.60;28.80;;;;;;4935369;29;20413;-75
2021/04/17 11:45:55;;;;;;;4.20;2.70;;;16.50;28.60;;;;;;4966328;29;20427;-74
2021/04/17 11:48:20;;;;;;;6.17;2.60;;;16.60;28.60;;;;;;4963357;29;20177;-75
2021/04/17 11:50:47;;;;;;;6.77;3.37;;;16.40;28.00;;;;;;4955700;29;20197;-74
2021/04/17 11:53:13;;;;;;;6.87;3.80;;;16.20;28.30;;;;;;4961188;29;20178;-72
2021/04/17 11:55:38;;;;;;;6.13;2.70;;;16.00;28.70;;;;;;4968713;28;20416;-72
2021/04/17 11:58:04;;;;;;;6.53;3.40;;;15.70;29.30;;;;;;4955028;29;20419;-72
2021/04/17 12:00:30;;;;;;;8.13;2.87;;;15.60;29.40;;;;;;4953299;29;20199;-74
2021/04/17 12:02:56;;;;;;;6.73;2.97;;;15.50;29.60;;;;;;4950028;29;20245;-75
2021/04/17 12:05:21;;;;;;;6.97;2.80;;;15.30;29.70;;;;;;4953486;29;20174;-73
2021/04/17 12:07:47;;;;;;;5.37;2.53;;;15.20;30.00;;;;;;4954771;29;20185;-76
2021/04/17 12:10:16;;;;;;;6.80;3.20;;;15.00;30.00;;;;;;4954074;28;20193;-75
2021/04/17 12:12:41;;;;;;;4.53;4.03;;;14.90;30.10;;;;;;4953881;29;20165;-74
2021/04/17 12:15:07;;;;;;;16.97;5.47;;;15.10;30.50;;;;;;4955361;29;20433;-75
2021/04/17 12:17:36;;;;;;;4.80;4.30;;;15.00;30.40;;;;;;4954902;29;20202;-74
2021/04/17 12:20:09;;;;;;;5.63;3.20;;;15.20;30.30;;;;;;4942083;29;20500;-76
2021/04/17 12:22:35;;;;;;;6.90;3.60;;;15.30;30.70;;;;;;4937963;29;21100;-76
2021/04/17 12:25:02;;;;;;;7.80;4.07;;;15.40;30.60;;;;;;4960723;29;20503;-75
2021/04/17 12:27:27;;;;;;;10.10;3.97;;;15.40;31.20;;;;;;4960880;28;20408;-75
2021/04/17 12:29:57;;;;;;;6.50;3.47;;;15.60;30.90;;;;;;4958157;29;21045;-73
2021/04/17 12:32:25;;;;;;;8.97;4.20;;;15.60;31.00;;;;;;4943424;29;20169;-73
2021/04/17 12:34:51;;;;;;;5.63;4.27;;;15.70;31.10;;;;;;4959739;29;20428;-75
2021/04/17 12:37:17;;;;;;;7.33;3.70;;;15.80;31.00;;;;;;4959254;29;20424;-74
2021/04/17 12:39:43;;;;;;;5.93;3.97;;;15.90;31.20;;;;;;4941308;29;20490;-74
2021/04/17 12:42:08;;;;;;;7.40;4.20;;;15.90;30.30;;;;;;4942069;29;20176;-73
2021/04/17 12:44:34;;;;;;;5.53;3.63;;;15.60;30.40;;;;;;4943842;29;20196;-74
2021/04/17 12:47:00;;;;;;;6.90;3.30;;;15.30;30.70;;;;;;4962317;29;20670;-74
2021/04/17 12:49:26;;;;;;;7.70;3.70;;;14.90;30.50;;;;;;4959277;29;20674;-73
2021/04/17 12:51:51;;;;;;;6.77;3.70;;;14.60;31.30;;;;;;4958849;29;20177;-73
2021/04/17 12:54:17;;;;;;;6.53;3.20;;;14.40;31.80;;;;;;4958036;29;20175;-72
2021/04/17 12:56:44;;;;;;;6.40;3.67;;;14.20;32.20;;;;;;4964358;29;20216;-74
2021/04/17 12:59:10;;;;;;;5.83;3.50;;;14.20;32.40;;;;;;4959154;29;20539;-73